Kula, HI (96790)

12:20 AM HST on February 11, 2016 (GMT -1000)
Kula | | Change Station
CLOSE
Current Station
Personal Weather Station
Location: Kula, HI
Elevation: 3360 ft
Nearby Weather Stations

Elev 3360 ft 20.75 °N, 156.32 °W | Updated 13 minutes ago

Clear
Clear
46.9 °F
Feels Like 47 °F
N
1.7
Wind Variable Wind from ENE

Today
High -- | Low -- °F
--% Chance of Precip.
Yesterday
High -- | Low -- °F
Precip. -- in
Pressure 30.04 in
Visibility 10.0 miles
Clouds Clear
Windchill 47 °F
Dew Point 39 °F
Humidity 74%
Rainfall 0.00 in
Snow Depth Not available.
6:57 AM 6:21 PM
Waxing Crescent, 11% visible
METAR PHNY 110956Z AUTO 07009KT 10SM CLR 18/14 A3010 RMK AO2 SLP173 T01780144 402390128
Pressure 30.04 in
Visibility 10.0 miles
Clouds Clear
Windchill 47 °F
Dew Point 39 °F
Humidity 74%
Rainfall 0.00 in
Snow Depth Not available.
6:57 AM 6:21 PM
Waxing Crescent, 11% visible
METAR PHNY 110956Z AUTO 07009KT 10SM CLR 18/14 A3010 RMK AO2 SLP173 T01780144 402390128

10-Day Weather Forecast

Almanac

Astronomy

Feb. 11, 2016 Rise Set
Actual Time
Civil Twilight
Nautical Twilight
Astronomical Twilight
Moon
Length of Visible Light
Length of Day
Tomorrow will be .
, % of the Moon is Illuminated

Today's Extremes

State Highs State Lows

Community

WunderPhotos

Upload Photos

1,892,030 photos uploaded!

WunderBlog® & News

Nearby

Air Quality

  Air Quality AQ Index Pollutant
Not available.

Snow Depth

Station Depth Elevation

Earthquake Activity

City Distance Mag. Time & Date
Minimum magnitude displayed is 2.5.

Coastal Water Temperatures

Place Temperature

Stations

Nearby Weather Stations

Station Location Temp. Windchill Dew Point Humidity Wind Precip. Elev Updated Type
                   

Watches & Warnings

There are currently no watches in effect.